Startpagina
METAR-TAF:

METAR-TAF

Vliegvelden :

Brisbane Airport

Brisbane, Australië

breedte: 27-23S, lengte: 153-06E, hoogte: 4 m

Actueel weer

Dit bericht is 44 minuten geleden gemaakt, om 07:00 UTC
Wind 17 kt uit het noordnoordoosten
Temperatuur 27°C
Vochtigheid 66%
Druk 1012 hPa
Zicht 10 km of meer
geen wolken onder 1500 m en geen cumulonimbus

METAR: YBBN 100700Z 02017KT CAVOK 27/20 Q1012 NOSIG

Tijdstip: 17:44 (07:44 UTC)

Verwachting

Dit bericht is 2 uur en het 36 minuten geleden gemaakt, om 05:08 UTC
Verwachting geldig van 10 om 06 UTC tot 11 om 12 UTC
Wind 17 kt uit het noordnoordoosten
Zicht 10 km of meer
geen wolken onder 1500 m en geen cumulonimbus
Van 10 om 1000 UTC
Wind 10 kt uit het noorden
Zicht 10 km of meer
Verspreide wolken op 1500 ft
rook
Van 10 om 2300 UTC
Wind 17 kt uit het noordnoordoosten
Zicht 10 km of meer
geen wolken onder 1500 m en geen cumulonimbus

TAF: YBBN 100508Z 1006/1112 02017KT CAVOK FM101000 35010KT 9999 FU SCT015 FM102300 02017KT CAVOK

Waarnemingen en weersverwachtingen van meer dan 4000 vliegvelden (METAR en TAF).

De beschikbare stations zijn de gele en rode punten op de kaart.

Ga met uw muis naar het station om de naam te zien.

Klik dan om waarnemingen en weersverwachtingen te zien.

kaart wijzigen: klik op de groene knoppen met een zwart kruis om in te zoomen, op de groene knop met een streepje om uit te zoomen of op de groene pijlen voor aangrenzende kaarten.


METAR-TAF: